createdAt,value
2023-01-17T00:02:06.246Z,3.38
2023-01-17T00:04:52.304Z,3.70
2023-01-17T00:07:39.519Z,3.90
2023-01-17T00:10:09.785Z,4.07
2023-01-17T00:12:36.716Z,4.32
2023-01-17T00:15:03.940Z,4.35
2023-01-17T00:17:30.937Z,5.00
2023-01-17T00:20:18.112Z,4.93
2023-01-17T00:23:04.757Z,4.90
2023-01-17T00:25:57.594Z,5.05
2023-01-17T00:28:26.711Z,4.50
2023-01-17T00:30:53.807Z,4.05
2023-01-17T00:33:21.720Z,4.15
2023-01-17T00:35:48.882Z,5.03
2023-01-17T00:38:18.629Z,4.40
2023-01-17T00:40:46.293Z,4.63
2023-01-17T00:43:34.248Z,4.72
2023-01-17T00:46:19.509Z,3.92
2023-01-17T00:49:05.280Z,4.13
2023-01-17T00:51:52.029Z,4.35
2023-01-17T00:54:37.895Z,4.05
2023-01-17T00:57:24.476Z,4.32
2023-01-17T01:00:09.866Z,3.75
2023-01-17T01:02:56.405Z,3.58
2023-01-17T01:05:42.748Z,3.75
2023-01-17T01:08:43.402Z,3.85
2023-01-17T01:11:34.076Z,4.07
2023-01-17T01:14:20.157Z,3.22
2023-01-17T01:17:05.638Z,3.65
2023-01-17T01:19:52.229Z,3.17
2023-01-17T01:22:37.919Z,3.72
2023-01-17T01:25:23.807Z,2.92
2023-01-17T01:28:09.274Z,3.38
2023-01-17T01:30:54.702Z,3.40
2023-01-17T01:33:21.354Z,3.85
2023-01-17T01:35:53.953Z,4.53
2023-01-17T01:38:23.551Z,3.28
2023-01-17T01:40:52.889Z,3.20
2023-01-17T01:43:38.951Z,3.20
2023-01-17T01:46:06.619Z,2.92
2023-01-17T01:48:41.465Z,3.30
2023-01-17T01:51:11.931Z,3.80
2023-01-17T01:53:42.134Z,2.72
2023-01-17T01:56:13.110Z,2.95
2023-01-17T01:58:41.713Z,2.92
2023-01-17T02:01:09.367Z,2.53
2023-01-17T02:03:39.984Z,2.25
2023-01-17T02:06:29.944Z,2.10
2023-01-17T02:09:01.060Z,2.33
2023-01-17T02:11:28.021Z,2.75
2023-01-17T02:13:54.925Z,2.75
2023-01-17T02:16:52.280Z,2.78
2023-01-17T02:19:55.916Z,2.17
2023-01-17T02:22:42.855Z,2.38
2023-01-17T02:25:38.511Z,2.25
2023-01-17T02:28:22.844Z,2.65
2023-01-17T02:31:12.403Z,1.83
2023-01-17T02:33:55.673Z,2.38
2023-01-17T02:36:30.229Z,2.20
2023-01-17T02:39:06.813Z,2.28
2023-01-17T02:41:42.797Z,2.45
2023-01-17T02:44:10.986Z,2.65
2023-01-17T02:46:48.029Z,2.55
2023-01-17T02:49:17.368Z,2.63
2023-01-17T02:52:21.555Z,3.25
2023-01-17T02:55:03.858Z,2.95
2023-01-17T03:00:17.380Z,2.88
2023-01-17T03:03:09.770Z,3.33
2023-01-17T03:08:11.132Z,2.78
2023-01-17T03:10:39.275Z,2.78
2023-01-17T03:13:06.107Z,2.65
2023-01-17T03:15:33.228Z,2.65
2023-01-17T03:18:04.323Z,2.25
2023-01-17T03:20:30.991Z,2.38
2023-01-17T03:22:57.657Z,1.83
2023-01-17T03:25:24.304Z,1.88
2023-01-17T03:27:50.946Z,1.30
2023-01-17T03:30:17.835Z,1.17
2023-01-17T03:32:44.475Z,1.10
2023-01-17T03:35:11.108Z,1.27
2023-01-17T03:37:37.796Z,1.55
2023-01-17T03:40:05.190Z,1.90
2023-01-17T03:42:31.846Z,1.40
2023-01-17T03:44:58.475Z,1.23
2023-01-17T03:47:25.258Z,1.30
2023-01-17T03:49:52.311Z,1.00
2023-01-17T03:52:18.950Z,1.17
2023-01-17T03:54:45.637Z,1.05
2023-01-17T03:57:12.283Z,0.80
2023-01-17T03:59:38.962Z,0.90
2023-01-17T04:02:05.774Z,0.70
2023-01-17T04:04:32.458Z,0.70
2023-01-17T04:06:59.137Z,0.50
2023-01-17T04:09:25.752Z,0.60
2023-01-17T04:11:53.246Z,0.55
2023-01-17T04:14:19.922Z,0.60
2023-01-17T04:16:46.605Z,0.52
2023-01-17T04:19:13.920Z,0.60
2023-01-17T04:21:40.584Z,0.55
2023-01-17T04:24:07.592Z,0.65
2023-01-17T04:26:34.289Z,0.40
2023-01-17T04:29:00.904Z,0.30
2023-01-17T04:31:27.625Z,0.30
2023-01-17T04:33:54.260Z,0.32
2023-01-17T04:36:21.090Z,0.20
2023-01-17T04:38:47.773Z,0.10
2023-01-17T04:41:14.419Z,0.20
2023-01-17T04:43:41.087Z,0.20
2023-01-17T04:46:10.133Z,0.20
2023-01-17T04:48:37.305Z,0.30
2023-01-17T04:51:05.245Z,0.25
2023-01-17T04:53:32.192Z,0.30
2023-01-17T04:55:59.010Z,0.60
2023-01-17T04:58:26.601Z,0.73
2023-01-17T05:00:54.729Z,0.65
2023-01-17T05:03:22.984Z,0.63
2023-01-17T05:05:49.657Z,0.70
2023-01-17T05:08:16.303Z,0.40
2023-01-17T05:10:46.220Z,0.30
2023-01-17T05:13:13.717Z,0.10
2023-01-17T05:15:40.445Z,0.30
2023-01-17T05:18:11.059Z,0.20
2023-01-17T05:20:37.734Z,0.25
2023-01-17T05:23:04.397Z,0.22
2023-01-17T05:25:32.781Z,0.20
2023-01-17T05:28:00.168Z,0.43
2023-01-17T05:30:28.789Z,0.15
2023-01-17T05:32:56.877Z,0.20
2023-01-17T05:35:26.554Z,0.70
2023-01-17T05:37:53.282Z,0.43
2023-01-17T05:40:23.138Z,0.40
2023-01-17T05:42:51.479Z,0.40
2023-01-17T05:45:19.994Z,0.35
2023-01-17T05:47:47.936Z,0.60
2023-01-17T05:50:17.357Z,0.70
2023-01-17T05:52:50.670Z,0.60
2023-01-17T05:55:17.353Z,0.90
2023-01-17T05:57:44.080Z,0.60
2023-01-17T06:00:11.383Z,0.70
2023-01-17T06:02:38.114Z,0.60
2023-01-17T06:05:05.461Z,0.70
2023-01-17T06:07:32.734Z,0.63
2023-01-17T06:09:59.413Z,1.00
2023-01-17T06:12:26.075Z,1.38
2023-01-17T06:14:52.728Z,1.23
2023-01-17T06:17:19.348Z,1.08
2023-01-17T06:19:46.021Z,0.80
2023-01-17T06:22:12.778Z,0.60
2023-01-17T06:24:39.429Z,0.88
2023-01-17T06:27:09.448Z,1.08
2023-01-17T06:29:36.445Z,1.23
2023-01-17T06:32:03.413Z,1.10
2023-01-17T06:34:30.127Z,0.50
2023-01-17T06:36:57.332Z,0.80
2023-01-17T06:39:24.019Z,0.93
2023-01-17T06:41:50.679Z,0.60
2023-01-17T06:44:17.492Z,0.70
2023-01-17T06:46:45.053Z,0.45
2023-01-17T06:49:11.830Z,0.90
2023-01-17T06:51:38.521Z,0.65
2023-01-17T06:54:05.336Z,1.05
2023-01-17T06:56:33.169Z,0.82
2023-01-17T06:58:59.944Z,0.70
2023-01-17T07:01:26.746Z,1.02
2023-01-17T07:03:53.791Z,0.80
2023-01-17T07:06:20.924Z,1.42
2023-01-17T07:08:47.567Z,1.10
2023-01-17T07:11:14.231Z,0.98
2023-01-17T07:13:41.574Z,1.27
2023-01-17T07:16:09.108Z,0.82
2023-01-17T07:18:35.912Z,1.15
2023-01-17T07:21:02.593Z,1.13
2023-01-17T07:23:29.302Z,1.45
2023-01-17T07:26:00.278Z,0.90
2023-01-17T07:28:28.252Z,1.40
2023-01-17T07:30:54.927Z,1.13
2023-01-17T07:33:21.859Z,0.90
2023-01-17T07:35:48.518Z,1.38
2023-01-17T07:38:18.382Z,1.00
2023-01-17T07:40:45.624Z,1.23
2023-01-17T07:43:16.569Z,1.05
2023-01-17T07:45:53.496Z,1.65
2023-01-17T07:48:22.681Z,1.70
2023-01-17T07:50:54.188Z,1.52
2023-01-17T07:53:29.180Z,1.13
2023-01-17T07:55:59.989Z,1.42
2023-01-17T07:58:26.753Z,1.60
2023-01-17T08:00:53.558Z,1.30
2023-01-17T08:03:20.418Z,1.25
2023-01-17T08:05:55.418Z,2.20
2023-01-17T08:08:22.118Z,1.63
2023-01-17T08:10:49.516Z,1.95
2023-01-17T08:13:16.274Z,1.95
2023-01-17T08:15:43.086Z,1.90
2023-01-17T08:18:09.829Z,2.10
2023-01-17T08:20:36.508Z,1.60
2023-01-17T08:23:03.161Z,1.80
2023-01-17T08:25:29.950Z,2.15
2023-01-17T08:27:58.006Z,2.08
2023-01-17T08:30:25.708Z,2.10
2023-01-17T08:32:52.576Z,2.00
2023-01-17T08:35:22.671Z,2.30
2023-01-17T08:37:54.644Z,2.58
2023-01-17T08:40:22.092Z,2.50
2023-01-17T08:42:56.911Z,2.75
2023-01-17T08:45:24.237Z,2.28
2023-01-17T08:47:51.540Z,2.60
2023-01-17T08:50:21.547Z,2.40
2023-01-17T08:52:49.237Z,2.17
2023-01-17T08:55:16.812Z,2.70
2023-01-17T08:57:43.518Z,3.47
2023-01-17T09:00:10.856Z,3.80
2023-01-17T09:02:37.553Z,3.40
2023-01-17T09:05:04.522Z,2.75
2023-01-17T09:07:31.310Z,3.17
2023-01-17T09:09:57.964Z,2.72
2023-01-17T09:12:24.782Z,2.70
2023-01-17T09:14:51.469Z,2.30
2023-01-17T09:17:18.117Z,2.78
2023-01-17T09:19:47.376Z,3.22
2023-01-17T09:22:15.095Z,2.53
2023-01-17T09:24:42.164Z,2.60
2023-01-17T09:27:08.851Z,3.00
2023-01-17T09:29:35.612Z,2.30
2023-01-17T09:32:02.341Z,2.78
2023-01-17T09:34:30.408Z,3.00
2023-01-17T09:36:57.251Z,2.53
2023-01-17T09:39:24.054Z,3.20
2023-01-17T09:42:22.513Z,2.80
2023-01-17T09:44:52.542Z,2.10
2023-01-17T09:47:32.709Z,3.05
2023-01-17T09:50:15.208Z,3.25
2023-01-17T09:52:41.940Z,2.65
2023-01-17T09:55:14.702Z,2.97
2023-01-17T09:58:21.559Z,3.58
2023-01-17T10:01:04.511Z,2.30
2023-01-17T10:03:49.868Z,3.15
2023-01-17T10:06:26.297Z,3.45
2023-01-17T10:09:08.035Z,3.00
2023-01-17T10:12:14.473Z,2.55
2023-01-17T10:15:03.022Z,2.20
2023-01-17T10:18:03.797Z,1.80
2023-01-17T10:20:43.349Z,1.95
2023-01-17T10:23:16.976Z,2.45
2023-01-17T10:25:47.619Z,1.75
2023-01-17T10:28:30.630Z,2.58
2023-01-17T10:31:12.082Z,2.17
2023-01-17T10:33:52.602Z,1.70
2023-01-17T10:36:27.367Z,1.58
2023-01-17T10:38:57.699Z,1.92
2023-01-17T10:41:29.271Z,1.70
2023-01-17T10:44:05.319Z,1.75
2023-01-17T10:46:40.883Z,2.45
2023-01-17T10:49:16.683Z,1.60
2023-01-17T10:52:11.593Z,1.73
2023-01-17T10:54:56.616Z,2.47
2023-01-17T10:57:25.805Z,2.10
2023-01-17T10:59:55.653Z,2.00
2023-01-17T11:02:29.937Z,1.83
2023-01-17T11:04:57.965Z,1.80
2023-01-17T11:07:26.722Z,1.80
2023-01-17T11:09:56.204Z,1.80
2023-01-17T11:12:28.181Z,1.80
2023-01-17T11:15:08.607Z,2.38
2023-01-17T11:17:46.252Z,2.05
2023-01-17T11:20:20.115Z,2.05
2023-01-17T11:23:23.069Z,1.98
2023-01-17T11:25:51.158Z,1.90
2023-01-17T11:28:22.714Z,2.70
2023-01-17T11:30:57.164Z,2.65
2023-01-17T11:33:36.080Z,2.80
2023-01-17T11:36:02.753Z,2.60
2023-01-17T11:38:29.449Z,2.25
2023-01-17T11:41:16.169Z,2.65
2023-01-17T11:43:55.056Z,2.60
2023-01-17T11:46:22.560Z,3.50
2023-01-17T11:48:56.137Z,3.00
2023-01-17T11:51:28.338Z,3.70
2023-01-17T11:54:03.476Z,3.08
2023-01-17T11:56:33.477Z,2.60
2023-01-17T11:59:23.665Z,2.95
2023-01-17T12:02:18.964Z,2.67
2023-01-17T12:04:48.826Z,3.63
2023-01-17T12:07:23.718Z,3.30
2023-01-17T12:10:07.194Z,3.85
2023-01-17T12:13:26.946Z,3.42
2023-01-17T12:16:32.978Z,3.10
2023-01-17T12:19:23.202Z,3.53
2023-01-17T12:22:18.560Z,3.50
2023-01-17T12:25:14.718Z,2.80
2023-01-17T12:28:16.909Z,3.35
2023-01-17T12:31:27.169Z,3.33
2023-01-17T12:34:01.901Z,4.82
2023-01-17T12:36:37.827Z,4.10
2023-01-17T12:39:09.296Z,3.78
2023-01-17T12:41:41.714Z,4.07
2023-01-17T12:44:14.257Z,4.22
2023-01-17T12:46:49.410Z,3.88
2023-01-17T12:49:42.759Z,3.50
2023-01-17T12:52:35.521Z,4.47
2023-01-17T12:55:10.529Z,3.67
2023-01-17T12:57:45.038Z,4.30
2023-01-17T13:00:20.204Z,3.83
2023-01-17T13:02:56.488Z,3.55
2023-01-17T13:05:37.115Z,3.35
2023-01-17T13:08:35.931Z,3.13
2023-01-17T13:11:18.151Z,4.13
2023-01-17T13:16:35.356Z,3.88
2023-01-17T13:19:15.380Z,3.50
2023-01-17T13:21:42.496Z,4.05
2023-01-17T13:24:23.889Z,4.22
2023-01-17T13:27:09.815Z,4.77
2023-01-17T13:30:04.417Z,3.97
2023-01-17T13:32:59.019Z,4.45
2023-01-17T13:35:39.829Z,3.85
2023-01-17T13:38:43.933Z,4.78
2023-01-17T13:41:34.302Z,4.53
2023-01-17T13:44:21.638Z,4.90
2023-01-17T13:47:05.059Z,4.65
2023-01-17T13:49:39.120Z,3.92
2023-01-17T13:52:10.685Z,4.13
2023-01-17T13:54:46.348Z,4.30
2023-01-17T13:57:30.221Z,6.10
2023-01-17T14:00:23.283Z,6.63
2023-01-17T14:02:51.542Z,5.53
2023-01-17T14:05:42.211Z,5.03
2023-01-17T14:08:17.203Z,4.70
2023-01-17T14:10:49.764Z,5.90
2023-01-17T14:13:35.588Z,5.60
2023-01-17T14:16:06.918Z,5.88
2023-01-17T14:18:36.771Z,5.68
2023-01-17T14:21:11.557Z,4.97
2023-01-17T14:23:50.658Z,5.63
2023-01-17T14:26:25.604Z,5.32
2023-01-17T14:28:53.418Z,6.47
2023-01-17T14:31:22.555Z,4.90
2023-01-17T14:33:49.259Z,6.78
2023-01-17T14:36:29.479Z,5.35
2023-01-17T14:38:56.433Z,5.10
2023-01-17T14:41:27.211Z,5.97
2023-01-17T14:43:54.414Z,5.45
2023-01-17T14:46:30.983Z,5.63
2023-01-17T14:49:03.908Z,5.07
2023-01-17T14:51:34.923Z,5.75
2023-01-17T14:54:05.169Z,6.38
2023-01-17T14:56:32.548Z,6.13
2023-01-17T14:59:21.993Z,5.00
2023-01-17T15:02:07.594Z,5.65
2023-01-17T15:04:39.367Z,6.20
2023-01-17T15:07:06.770Z,6.18
2023-01-17T15:09:37.092Z,6.30
2023-01-17T15:12:04.636Z,6.45
2023-01-17T15:14:38.744Z,6.68
2023-01-17T15:17:15.482Z,6.43
2023-01-17T15:19:44.308Z,7.50
2023-01-17T15:22:11.824Z,7.30
2023-01-17T15:24:42.195Z,6.88
2023-01-17T15:27:13.360Z,8.75
2023-01-17T15:29:41.047Z,8.27
2023-01-17T15:32:23.803Z,8.82
2023-01-17T15:34:51.655Z,7.65
2023-01-17T15:37:21.343Z,7.40
2023-01-17T15:39:48.194Z,11.50
2023-01-17T15:42:27.144Z,12.60
2023-01-17T15:44:56.738Z,9.70
2023-01-17T15:47:33.791Z,8.73
2023-01-17T15:50:02.716Z,8.32
2023-01-17T15:52:29.545Z,8.35
2023-01-17T15:55:13.688Z,7.80
2023-01-17T15:57:40.733Z,9.10
2023-01-17T16:00:12.516Z,8.40
2023-01-17T16:02:58.648Z,10.80
2023-01-17T16:05:27.527Z,7.93
2023-01-17T16:07:56.720Z,8.18
2023-01-17T16:10:27.690Z,8.25
2023-01-17T16:12:58.228Z,9.15
2023-01-17T16:15:26.481Z,8.27
2023-01-17T16:17:58.223Z,9.43
2023-01-17T16:20:41.522Z,9.75
2023-01-17T16:23:10.199Z,9.93
2023-01-17T16:25:36.922Z,9.48
2023-01-17T16:28:03.988Z,9.90
2023-01-17T16:30:31.532Z,9.30
2023-01-17T16:32:58.548Z,9.85
2023-01-17T16:35:28.279Z,9.65
2023-01-17T16:38:01.008Z,9.48
2023-01-17T16:40:31.244Z,11.00
2023-01-17T16:43:01.368Z,13.63
2023-01-17T16:45:28.128Z,12.07
2023-01-17T16:47:54.939Z,17.75
2023-01-17T16:50:24.056Z,15.95
2023-01-17T16:52:52.459Z,15.88
2023-01-17T16:55:22.016Z,14.60
2023-01-17T16:57:50.627Z,13.43
2023-01-17T17:00:18.249Z,12.90
2023-01-17T17:02:44.959Z,12.30
2023-01-17T17:05:11.719Z,11.18
2023-01-17T17:07:45.341Z,11.63
2023-01-17T17:10:14.623Z,12.13
2023-01-17T17:12:41.754Z,11.38
2023-01-17T17:15:09.555Z,12.18
2023-01-17T17:17:41.029Z,11.30
2023-01-17T17:20:12.970Z,11.45
2023-01-17T17:22:44.068Z,15.60
2023-01-17T17:25:12.095Z,14.87
2023-01-17T17:27:38.915Z,15.43
2023-01-17T17:30:06.315Z,15.70
2023-01-17T17:32:33.101Z,13.38
2023-01-17T17:35:00.169Z,11.50
2023-01-17T17:37:30.280Z,10.18
2023-01-17T17:39:57.596Z,11.00
2023-01-17T17:42:24.347Z,12.32
2023-01-17T17:44:51.032Z,13.07
2023-01-17T17:47:17.861Z,15.07
2023-01-17T17:49:44.555Z,14.73
2023-01-17T17:52:11.253Z,12.68
2023-01-17T17:54:38.123Z,19.13
2023-01-17T17:57:04.849Z,19.25
2023-01-17T17:59:31.698Z,14.63
2023-01-17T18:01:59.658Z,15.48
2023-01-17T18:04:26.748Z,16.65
2023-01-17T18:06:57.533Z,18.48
2023-01-17T18:09:24.406Z,16.60
2023-01-17T18:11:51.070Z,16.67
2023-01-17T18:14:20.826Z,20.67
2023-01-17T18:16:47.809Z,22.23
2023-01-17T18:19:18.009Z,21.52
2023-01-17T18:21:44.755Z,22.33
2023-01-17T18:24:14.407Z,18.55
2023-01-17T18:26:45.849Z,20.38
2023-01-17T18:29:15.613Z,18.60
2023-01-17T18:31:43.679Z,20.35
2023-01-17T18:34:13.371Z,19.05
2023-01-17T18:36:40.310Z,17.15
2023-01-17T18:39:18.711Z,17.70
2023-01-17T18:41:45.792Z,16.58
2023-01-17T18:44:12.874Z,16.33
2023-01-17T18:46:40.319Z,15.48
2023-01-17T18:49:07.560Z,15.50
2023-01-17T18:51:34.678Z,15.98
2023-01-17T18:54:05.328Z,16.55
2023-01-17T18:56:34.231Z,21.17
2023-01-17T18:59:01.213Z,22.67
2023-01-17T19:01:33.639Z,23.98
2023-01-17T19:04:04.887Z,25.77
2023-01-17T19:06:34.319Z,28.00
2023-01-17T19:09:01.465Z,21.73
2023-01-17T19:11:29.025Z,22.20
2023-01-17T19:13:56.745Z,19.88
2023-01-17T19:16:27.889Z,22.25
2023-01-17T19:19:01.775Z,21.07
2023-01-17T19:21:29.307Z,19.27
2023-01-17T19:23:57.204Z,18.92
2023-01-17T19:26:26.416Z,18.90
2023-01-17T19:28:54.333Z,20.27
2023-01-17T19:31:24.162Z,26.58
2023-01-17T19:33:53.768Z,30.23
2023-01-17T19:36:23.493Z,21.88
2023-01-17T19:39:03.485Z,21.88
2023-01-17T19:41:32.093Z,20.33
2023-01-17T19:44:03.680Z,18.35
2023-01-17T19:46:30.804Z,19.52
2023-01-17T19:48:58.182Z,18.85
2023-01-17T19:51:25.440Z,22.08
2023-01-17T19:53:53.542Z,23.90
2023-01-17T19:56:22.578Z,23.60
2023-01-17T19:58:49.643Z,20.48
2023-01-17T20:01:19.033Z,20.88
2023-01-17T20:03:46.603Z,21.70
2023-01-17T20:06:16.831Z,23.20
2023-01-17T20:08:44.466Z,22.67
2023-01-17T20:11:14.741Z,51.80
2023-01-17T20:13:42.130Z,49.00
2023-01-17T20:16:11.988Z,44.70
2023-01-17T20:18:38.800Z,30.30
2023-01-17T20:21:08.547Z,28.50
2023-01-17T20:23:38.306Z,30.25
2023-01-17T20:26:05.666Z,25.13
2023-01-17T20:28:34.087Z,24.83
2023-01-17T20:31:14.465Z,24.25
2023-01-17T20:33:43.072Z,25.88
2023-01-17T20:36:12.794Z,24.17
2023-01-17T20:38:45.447Z,22.42
2023-01-17T20:41:15.214Z,24.25
2023-01-17T20:43:57.904Z,22.45
2023-01-17T20:46:31.343Z,22.48
2023-01-17T20:49:00.437Z,22.92
2023-01-17T20:51:28.557Z,23.27
2023-01-17T20:54:00.964Z,21.88
2023-01-17T20:56:30.087Z,22.30
2023-01-17T20:58:57.806Z,21.95
2023-01-17T21:01:24.503Z,22.48
2023-01-17T21:03:53.862Z,23.55
2023-01-17T21:06:22.733Z,23.70
2023-01-17T21:08:50.061Z,23.00
2023-01-17T21:11:20.366Z,20.35
2023-01-17T21:13:51.240Z,21.33
2023-01-17T21:16:21.001Z,20.70
2023-01-17T21:18:49.010Z,21.23
2023-01-17T21:21:19.079Z,21.92
2023-01-17T21:23:45.838Z,18.88
2023-01-17T21:26:14.598Z,20.25
2023-01-17T21:28:45.938Z,19.65
2023-01-17T21:31:23.135Z,15.35
2023-01-17T21:34:11.220Z,19.55
2023-01-17T21:36:47.853Z,18.95
2023-01-17T21:39:18.174Z,18.25
2023-01-17T21:41:48.477Z,19.05
2023-01-17T21:44:19.576Z,21.70
2023-01-17T21:46:48.073Z,22.07
2023-01-17T21:49:15.934Z,19.73
2023-01-17T21:51:52.960Z,22.67
2023-01-17T21:54:46.578Z,20.75
2023-01-17T21:57:35.327Z,18.63
2023-01-17T22:00:09.471Z,19.33
2023-01-17T22:02:50.897Z,18.75
2023-01-17T22:05:26.734Z,18.60
2023-01-17T22:09:24.617Z,18.13
2023-01-17T22:11:59.512Z,18.20
2023-01-17T22:20:37.801Z,17.92
2023-01-17T22:20:42.478Z,18.67
2023-01-17T22:23:45.417Z,18.42
2023-01-17T22:26:18.553Z,18.63
2023-01-17T22:28:52.054Z,18.20
2023-01-17T22:31:23.760Z,17.48
2023-01-17T22:34:02.883Z,19.67
2023-01-17T22:36:38.014Z,19.83
2023-01-17T22:39:05.584Z,19.92
2023-01-17T22:41:38.346Z,17.38
2023-01-17T22:44:07.765Z,20.48
2023-01-17T22:46:40.779Z,18.95
2023-01-17T22:49:13.492Z,17.95
2023-01-17T22:51:43.884Z,20.70
2023-01-17T22:54:11.701Z,17.88
2023-01-17T22:56:39.387Z,17.85
2023-01-17T22:59:11.849Z,18.10
2023-01-17T23:01:42.986Z,16.38
2023-01-17T23:04:14.116Z,19.58
2023-01-17T23:06:42.212Z,17.02
2023-01-17T23:09:12.537Z,17.25
2023-01-17T23:11:50.200Z,17.38
2023-01-17T23:14:22.517Z,17.75
2023-01-17T23:17:15.872Z,18.85
2023-01-17T23:19:57.195Z,19.52
2023-01-17T23:22:26.992Z,19.77
2023-01-17T23:24:57.828Z,26.67
2023-01-17T23:27:49.657Z,24.77
2023-01-17T23:30:18.718Z,21.38
2023-01-17T23:32:46.533Z,18.35
2023-01-17T23:35:14.432Z,18.15
2023-01-17T23:37:59.979Z,18.67
2023-01-17T23:40:26.664Z,15.60
2023-01-17T23:43:12.017Z,15.02
2023-01-17T23:45:39.397Z,12.82
2023-01-17T23:48:09.480Z,14.60
2023-01-17T23:50:38.783Z,13.88
2023-01-17T23:53:09.330Z,14.60
2023-01-17T23:55:41.046Z,12.52
2023-01-17T23:58:10.086Z,12.65
